EGCN/DSA METAR and TAF weather

Enter ICAO airport designator
Station Type Date Time Source
EGCN METAR 2018/12/12 17:20 UTC NOAA

EGCN 121720Z 13007KT CAVOK 04/01 Q1022


Station Type Date Time Source
EGCN Decoded METAR 2018/12/12 17:20 UTC NOAA

Station name not available
Dec 12, 2018 - 12:20 PM EST / 2018.12.12 1720 UTC
Wind: from the SE (130 degrees) at 8 MPH (7 KT):0
Visibility: greater than 7 mile(s):0
Temperature: 39 F (4 C)
Dew Point: 33 F (1 C)
Relative Humidity: 80%
Pressure (altimeter): 30.18 in. Hg (1022 hPa)
ob: EGCN 121720Z 13007KT CAVOK 04/01 Q1022
cycle: 17

Station Type Date Time Source
EGCN TAF 2018/12/12 18:00 UTC NOAA

TAF EGCN 121656Z 1218/1318 14007KT 9999 SCT025


Example: see airport list